Munson, Pennsylvania
Current Conditions -  °F | °C
As of 10:54 PM on Tuesday 25 Nov 2014 (Local Time) from KFIG Reporting Station
Clear Clear  
Wind Chill: 29°   Ceiling: Unl
Heat Index: 33°   Visibility: 10mi
Dew Point: 24°   Wind: 5mph
Humidity: 70%   Direction: 310°NW
Pressure: 30.15"   Gusts: NA
Location:  40.95°N, 78.17°W
Report Text: KFIG 260354Z AUTO 31004KT 10SM CLR 01/M04 A3015 RMK AO2 SLP221 T00061044
Loading
Personal Weather Stations






























Interactive Weather Map New forecast layout! Learn more

10-Day Weather Forecast

Advertisements
Track Severe Weather on mobile